Flight Track Log - Related Links

Times and Time Zones

All times are in EDT time to prevent confusion due to time zone crossing. See the N1944E flight status page for this flight to view local times or setup timezone preferences in your user account.

Time Position Orientation Groundspeed Altitude Reporting Facility
EDT Latitude Longitude Course Direction KTS MPH feet Rate Location/Type
Tue 06:16:00 PM 44.2236 -109.0167 180° South  Level FlightAware Approximate
Tue 06:17:00 PM 44.1747 -109.0167 180° South  Level FlightAware Approximate
Tue 06:18:00 PM 44.1259 -109.0167 180° South  Level FlightAware Approximate
Tue 06:19:00 PM 44.0770 -109.0167 180° South  Level FlightAware Approximate
Tue 06:20:00 PM 44.0282 -109.0167 180° South  Level FlightAware Approximate
Tue 06:21:00 PM 43.9794 -109.0167 180° South  Level FlightAware Approximate
Tue 06:22:00 PM 43.9305 -109.0167 180° South  Level FlightAware Approximate
Tue 06:22:48 PM 43.9658 -108.8811 178° South 219 252 16,800  Level Salt Lake Center
Tue 06:23:00 PM 43.8819 -109.0212 190° South  Level FlightAware Approximate
Tue 06:23:51 PM 43.9167 -108.8797 179° South 162 186 16,900  Level Salt Lake Center
Tue 06:24:00 PM 43.8339 -109.0332 190° South  Level FlightAware Approximate
Tue 06:24:51 PM 43.8683 -108.8844 184° South 170 196 17,000  Level Salt Lake Center
Tue 06:25:00 PM 43.7850 -109.0340 181° South  Level FlightAware Approximate
Tue 06:25:53 PM 43.8139 -108.8936 187° South 174 200 17,000  Level Salt Lake Center
Tue 06:26:00 PM 43.7362 -109.0346 181° South  Level FlightAware Approximate
Tue 06:26:54 PM 43.7664 -108.9022 187° South 176 203 17,000  Level Salt Lake Center
Tue 06:27:00 PM 43.6873 -109.0352 181° South  Level FlightAware Approximate
Tue 06:27:56 PM 43.7103 -108.9122 187° South 178 205 17,000  Level Salt Lake Center
Tue 06:28:00 PM 43.6386 -109.0330 178° South  Level FlightAware Approximate
Tue 06:28:58 PM 43.6611 -108.9181 185° South 181 208 17,000  Level Salt Lake Center
Tue 06:29:59 PM 43.6097 -108.9219 183° South 184 212 17,000  Level Salt Lake Center
Tue 06:31:01 PM 43.5514 -108.9239 181° South 188 216 17,000  Level Salt Lake Center
Tue 06:32:03 PM 43.5017 -108.9275 183° South 187 215 17,000  Level Salt Lake Center
Tue 06:33:04 PM 43.4442 -108.9311 183° South 186 214 17,000  Level Salt Lake Center
Tue 06:34:06 PM 43.3942 -108.9372 185° South 186 214 17,000  Level Salt Lake Center
Tue 06:35:08 PM 43.3464 -108.9400 182° South 185 213 17,000  Level Salt Lake Center
Tue 06:36:10 PM 43.2861 -108.9453 184° South 183 211 17,000  Level Salt Lake Center
Tue 06:37:11 PM 43.2383 -108.9486 183° South 181 208 17,000  Level Salt Lake Center
Tue 06:38:13 PM 43.1919 -108.9506 182° South 176 203 17,000  Level Salt Lake Center
Tue 06:39:15 PM 43.1397 -108.9561 184° South 172 198 17,000  Level Salt Lake Center
Tue 06:40:16 PM 43.0942 -108.9614 185° South 172 198 17,000  Level Salt Lake Center
Tue 06:41:18 PM 43.0372 -108.9667 184° South 178 205 17,000  Level Salt Lake Center
Tue 06:42:20 PM 42.9897 -108.9711 184° South 180 207 17,000  Level Salt Lake Center
Tue 06:43:21 PM 42.9331 -108.9747 183° South 181 208 17,000  Level Salt Lake Center
Tue 06:44:23 PM 42.8833 -108.9783 183° South 185 213 17,000  Level Salt Lake Center
Tue 06:45:25 PM 42.8350 -108.9797 181° South 183 211 17,000 49 Level Salt Lake Center
Tue 06:46:26 PM 42.7772 -108.9817 181° South 185 213 17,100  Climbing Salt Lake Center
Tue 06:47:28 PM 42.7267 -108.9864 184° South 187 215 17,000 -48 Descending Salt Lake Center
Tue 06:48:30 PM 42.6683 -108.9944 186° South 188 216 17,000  Level Salt Lake Center
Tue 06:49:32 PM 42.6161 -108.9986 183° South 192 221 17,000 49 Level Salt Lake Center
Tue 06:50:33 PM 42.5592 -109.0003 181° South 188 216 17,100 49 Climbing Salt Lake Center
Tue 06:51:35 PM 42.5119 -109.0025 182° South 181 208 17,100 -48 Level Salt Lake Center
Tue 06:52:37 PM 42.4656 -109.0086 186° South 177 204 17,000 -49 Descending Salt Lake Center
Tue 06:53:38 PM 42.4106 -109.0150 185° South 177 204 17,000 49 Level Salt Lake Center
Tue 06:54:40 PM 42.3581 -109.0156 180° South 192 221 17,100 -48 Climbing Salt Lake Center
Tue 06:55:42 PM 42.2994 -109.0192 183° South 190 219 16,900 -439 Descending Salt Lake Center
Tue 06:56:43 PM 42.2464 -109.0233 183° South 196 226 16,200 -634 Descending Salt Lake Center
Tue 06:57:45 PM 42.1819 -109.0300 184° South 205 236 15,600 -726 Descending Salt Lake Center
Tue 06:58:47 PM 42.1272 -109.0344 183° South 206 237 14,700 -780 Descending Salt Lake Center
Tue 06:59:48 PM 42.0728 -109.0383 183° South 206 237 14,000 -683 Descending Salt Lake Center
Tue 07:00:50 PM 42.0092 -109.0400 181° South 205 236 13,300 -677 Descending Salt Lake Center
Tue 07:01:52 PM 41.9547 -109.0389 179° South 204 235 12,600 -732 Descending Salt Lake Center
Tue 07:02:53 PM 41.8919 -109.0461 185° South 203 234 11,800 -787 Descending Salt Lake Center

Login

Don't have an account? Register now (free) for customized features, flight alerts, and more!